Time;durP1;ratioP1;P1;durP2;ratioP2;P2;SDS_P1;SDS_P2;PMS_P1;PMS_P2;Temp;Humidity;BMP_temperature;BMP_pressure;BME280_temperature;BME280_humidity;BME280_pressure;Samples;Min_cycle;Max_cycle;Signal;HPM_P1;HPM_P2
2022/09/01 00:01:40;;;;;;;9.57;7.40;;;;;;;23.91;63.70;100414.50;5072023;28;20550;-67
2022/09/01 00:04:08;;;;;;;9.80;8.57;;;;;;;23.91;63.92;100411.59;5052632;28;20440;-66
2022/09/01 00:06:34;;;;;;;10.50;7.70;;;;;;;23.93;64.02;100419.84;5054230;28;20525;-67
2022/09/01 00:09:01;;;;;;;13.50;8.70;;;;;;;23.90;63.77;100412.00;5054846;28;20540;-66
2022/09/01 00:11:27;;;;;;;10.87;8.07;;;;;;;23.92;63.91;100416.13;5073753;28;20216;-67
2022/09/01 00:13:53;;;;;;;12.80;8.10;;;;;;;23.91;63.58;100414.50;5073708;28;20457;-67
2022/09/01 00:16:18;;;;;;;11.47;7.40;;;;;;;23.93;63.76;100414.88;5055973;28;20369;-67
2022/09/01 00:18:45;;;;;;;10.80;8.00;;;;;;;23.95;63.75;100420.25;5071669;28;20582;-66
2022/09/01 00:21:11;;;;;;;11.93;8.00;;;;;;;23.93;63.58;100417.78;5073720;28;20898;-67
2022/09/01 00:23:36;;;;;;;10.57;7.80;;;;;;;23.92;63.41;100415.28;5055446;28;20496;-66
2022/09/01 00:26:02;;;;;;;14.20;7.60;;;;;;;23.92;63.63;100415.28;5072309;28;20167;-67
2022/09/01 00:28:27;;;;;;;12.43;8.07;;;;;;;23.93;63.38;100412.00;5072265;28;20178;-67
2022/09/01 00:30:53;;;;;;;12.20;8.00;;;;;;;23.94;63.17;100412.84;5072776;28;20206;-67
2022/09/01 00:33:18;;;;;;;10.93;7.70;;;;;;;23.94;63.14;100413.63;5072604;28;20183;-67
2022/09/01 00:35:44;;;;;;;10.33;6.93;;;;;;;23.96;62.89;100416.13;5054494;28;20171;-67
2022/09/01 00:38:09;;;;;;;11.43;7.27;;;;;;;23.95;63.17;100415.31;5071572;28;20250;-67
2022/09/01 00:40:35;;;;;;;9.70;7.00;;;;;;;23.95;63.18;100417.34;5055133;28;20174;-67
2022/09/01 00:43:14;;;;;;;11.40;7.00;;;;;;;23.95;62.97;100415.31;5073075;28;20187;-67
2022/09/01 00:45:40;;;;;;;8.80;7.57;;;;;;;23.94;62.95;100416.53;5056401;28;20520;-66
2022/09/01 00:48:06;;;;;;;10.60;7.50;;;;;;;23.95;62.44;100417.34;5073231;28;20944;-66
2022/09/01 00:50:31;;;;;;;10.27;6.97;;;;;;;23.96;62.39;100416.94;5038325;28;20521;-67
2022/09/01 00:52:57;;;;;;;8.60;6.50;;;;;;;23.93;62.58;100412.00;5073116;28;20194;-66
2022/09/01 00:55:32;;;;;;;9.03;7.07;;;;;;;23.87;62.69;100419.41;5071919;28;20182;-67
2022/09/01 00:57:58;;;;;;;10.40;6.97;;;;;;;23.78;62.79;100416.13;5071570;28;20527;-67
2022/09/01 01:00:39;;;;;;;9.17;7.00;;;;;;;23.83;63.13;100421.47;5072966;28;20881;-63
2022/09/01 01:03:12;;;;;;;11.43;6.30;;;;;;;23.89;62.83;100422.72;5058936;28;20426;-63
2022/09/01 01:05:39;;;;;;;10.10;6.67;;;;;;;23.90;62.60;100417.78;5034465;28;21412;-64
2022/09/01 01:08:06;;;;;;;6.93;5.60;;;;;;;23.91;62.57;100423.13;5035985;28;21367;-63
2022/09/01 01:10:34;;;;;;;8.67;6.80;;;;;;;23.93;62.51;100426.41;5062161;28;20461;-63
2022/09/01 01:13:01;;;;;;;14.07;5.87;;;;;;;23.93;62.48;100417.78;5036415;28;20821;-62
2022/09/01 01:15:27;;;;;;;9.90;7.40;;;;;;;23.93;62.46;100432.19;5051408;28;20429;-63
2022/09/01 01:17:53;;;;;;;9.53;6.60;;;;;;;23.94;62.33;100424.38;5052313;28;20801;-63
2022/09/01 01:23:29;;;;;;;8.63;6.10;;;;;;;23.94;62.31;100425.19;5051187;28;20167;-63
2022/09/01 01:25:58;;;;;;;15.43;6.27;;;;;;;23.94;62.16;100416.53;5060369;28;20427;-62
2022/09/01 01:28:32;;;;;;;7.70;5.90;;;;;;;23.95;61.92;100417.34;5070235;28;20432;-62
2022/09/01 01:31:04;;;;;;;8.27;5.67;;;;;;;23.92;61.84;100419.00;5072005;28;20401;-63
2022/09/01 01:33:39;;;;;;;8.87;6.27;;;;;;;23.91;61.73;100417.38;5071087;28;20799;-62
2022/09/01 01:36:06;;;;;;;11.17;6.50;;;;;;;23.92;62.07;100418.19;5071017;28;20409;-62
2022/09/01 01:38:34;;;;;;;7.40;5.80;;;;;;;23.92;62.11;100418.19;5072124;28;20452;-62
2022/09/01 01:41:01;;;;;;;8.83;5.87;;;;;;;23.89;61.64;100416.94;5071547;28;20422;-63
2022/09/01 01:43:27;;;;;;;7.03;5.40;;;;;;;23.91;61.58;100413.66;5071621;28;20421;-62
2022/09/01 01:45:55;;;;;;;8.30;5.60;;;;;;;23.90;61.49;100421.50;5071577;28;20491;-62
2022/09/01 01:48:23;;;;;;;6.60;5.50;;;;;;;23.90;61.30;100414.91;5070400;28;20524;-63
2022/09/01 01:50:49;;;;;;;6.33;5.57;;;;;;;23.90;61.47;100414.91;5070204;28;20406;-63
2022/09/01 01:53:18;;;;;;;9.10;6.10;;;;;;;23.90;61.59;100412.00;5070193;28;20444;-63
2022/09/01 01:55:44;;;;;;;13.70;5.60;;;;;;;23.91;61.40;100417.38;5070875;28;20467;-63
2022/09/01 01:58:10;;;;;;;8.43;4.93;;;;;;;23.90;61.29;100415.72;5071870;28;20457;-62
2022/09/01 02:00:36;;;;;;;7.20;5.13;;;;;;;23.89;61.09;100414.06;5070532;28;20417;-63
2022/09/01 02:03:02;;;;;;;9.10;5.40;;;;;;;23.88;60.98;100409.50;5057021;28;20936;-63
2022/09/01 02:05:30;;;;;;;7.87;4.53;;;;;;;23.87;60.56;100404.97;5050384;28;20172;-63
2022/09/01 02:08:03;;;;;;;7.97;4.87;;;;;;;23.84;60.67;100411.56;5033873;28;20172;-62
2022/09/01 02:10:31;;;;;;;6.83;5.13;;;;;;;23.83;60.66;100409.13;5039749;28;20432;-64
2022/09/01 02:13:02;;;;;;;7.80;6.03;;;;;;;23.82;60.81;100411.16;5053356;28;20894;-63
2022/09/01 02:15:27;;;;;;;5.90;4.13;;;;;;;23.80;60.14;100410.78;5071227;28;20471;-64
2022/09/01 02:17:59;;;;;;;7.27;5.13;;;;;;;23.81;60.38;100411.56;5053519;28;20421;-63
2022/09/01 02:20:28;;;;;;;8.23;4.43;;;;;;;23.78;60.60;100410.34;5070746;28;20174;-64
2022/09/01 02:22:54;;;;;;;7.80;5.20;;;;;;;23.78;60.33;100410.34;5070776;28;21157;-63
2022/09/01 02:25:21;;;;;;;8.00;5.10;;;;;;;23.78;59.96;100412.44;5071562;28;20424;-63
2022/09/01 02:27:49;;;;;;;8.40;5.30;;;;;;;23.79;60.12;100403.34;5069961;28;20421;-62
2022/09/01 02:30:15;;;;;;;9.27;4.80;;;;;;;23.79;60.02;100409.09;5071011;28;20413;-63
2022/09/01 02:32:40;;;;;;;7.30;4.83;;;;;;;23.78;59.87;100407.47;5060459;28;20936;-64
2022/09/01 02:35:08;;;;;;;8.57;5.00;;;;;;;23.78;59.90;100407.47;5051583;28;20175;-63
2022/09/01 02:37:35;;;;;;;7.80;4.60;;;;;;;23.77;60.03;100402.94;5067204;28;20210;-64
2022/09/01 02:40:01;;;;;;;8.17;4.73;;;;;;;23.77;59.86;100411.59;5071021;28;20526;-63
2022/09/01 02:42:28;;;;;;;6.37;4.73;;;;;;;23.75;59.32;100408.31;5070416;28;20449;-62
2022/09/01 02:44:54;;;;;;;6.80;4.83;;;;;;;23.74;59.83;100400.88;5070826;28;20209;-63
2022/09/01 02:47:22;;;;;;;7.80;4.60;;;;;;;23.73;59.83;100410.75;5059642;28;20784;-63
2022/09/01 02:49:49;;;;;;;6.80;4.40;;;;;;;23.71;59.23;100403.75;5033299;28;20175;-63
2022/09/01 02:52:16;;;;;;;6.07;4.40;;;;;;;23.69;59.35;100401.28;5050645;28;20445;-63
2022/09/01 02:54:44;;;;;;;8.20;4.50;;;;;;;23.69;58.86;100407.06;5068119;28;20433;-62
2022/09/01 02:57:10;;;;;;;6.33;4.60;;;;;;;23.69;59.05;100398.41;5070773;28;21316;-63
2022/09/01 02:59:36;;;;;;;6.37;4.43;;;;;;;23.70;59.35;100408.72;5070370;28;20472;-63
2022/09/01 03:02:01;;;;;;;7.37;4.23;;;;;;;23.71;58.84;100400.88;5064300;28;20179;-63
2022/09/01 03:04:33;;;;;;;9.70;5.17;;;;;;;23.70;59.23;100402.97;5051029;28;20648;-63
2022/09/01 03:06:58;;;;;;;5.93;3.70;;;;;;;23.71;59.22;100400.88;5049631;28;20485;-63
2022/09/01 03:09:24;;;;;;;4.90;4.03;;;;;;;23.69;58.98;100403.38;5049612;28;20413;-63
2022/09/01 03:11:51;;;;;;;10.60;4.33;;;;;;;23.66;58.75;100399.25;5067507;28;20171;-63
2022/09/01 03:14:16;;;;;;;8.43;4.70;;;;;;;23.66;59.01;100402.13;5069512;28;20662;-63
2022/09/01 03:16:41;;;;;;;9.10;4.70;;;;;;;23.66;59.07;100399.25;5070774;28;20420;-63
2022/09/01 03:19:07;;;;;;;6.50;4.60;;;;;;;23.67;59.01;100392.25;5052531;28;20217;-63
2022/09/01 03:21:34;;;;;;;6.93;4.57;;;;;;;23.68;58.97;100399.66;5070852;28;20588;-63
2022/09/01 03:24:02;;;;;;;9.87;4.80;;;;;;;23.69;59.49;100403.38;5069156;28;20417;-63
2022/09/01 03:26:27;;;;;;;6.07;4.07;;;;;;;23.69;58.66;100401.28;5068496;28;20417;-62
2022/09/01 03:28:53;;;;;;;8.70;4.70;;;;;;;23.69;59.04;100404.19;5069786;28;20478;-63
2022/09/01 03:31:19;;;;;;;7.43;4.80;;;;;;;23.68;58.82;100402.53;5069331;28;20197;-63
2022/09/01 03:33:44;;;;;;;11.10;4.40;;;;;;;23.70;58.77;100405.84;5048882;28;20756;-63
2022/09/01 03:36:17;;;;;;;5.27;4.13;;;;;;;23.70;58.76;100405.84;5048604;28;20554;-63
2022/09/01 03:38:49;;;;;;;6.10;4.30;;;;;;;23.67;58.44;100406.66;5032909;28;20548;-63
2022/09/01 03:41:16;;;;;;;6.60;3.60;;;;;;;23.67;58.95;100403.78;5033653;28;20434;-63
2022/09/01 03:43:42;;;;;;;10.33;4.10;;;;;;;23.67;58.51;100406.66;5049274;28;20422;-63
2022/09/01 03:46:09;;;;;;;5.97;4.20;;;;;;;23.66;58.48;100405.03;5050628;28;20414;-63
2022/09/01 03:48:34;;;;;;;7.00;4.10;;;;;;;23.67;58.74;100402.94;5050415;28;20217;-63
2022/09/01 03:51:03;;;;;;;6.70;4.10;;;;;;;23.66;58.45;100402.13;5050520;28;20497;-62
2022/09/01 03:53:30;;;;;;;7.93;4.47;;;;;;;23.63;58.05;100394.31;5057378;28;20741;-63
2022/09/01 03:55:56;;;;;;;6.03;4.40;;;;;;;23.60;57.39;100403.78;5070514;28;21010;-62
2022/09/01 03:58:22;;;;;;;5.23;3.90;;;;;;;23.58;58.41;100397.59;5070071;28;20539;-63
2022/09/01 04:00:54;;;;;;;8.63;4.30;;;;;;;23.59;58.46;100398.44;5069891;28;20447;-63
2022/09/01 04:03:21;;;;;;;7.30;4.13;;;;;;;23.58;58.47;100397.59;5069717;28;20705;-64
2022/09/01 04:05:49;;;;;;;5.53;4.30;;;;;;;23.58;58.25;100397.59;5068569;28;20413;-63
2022/09/01 04:08:15;;;;;;;6.03;4.03;;;;;;;23.59;58.49;100407.88;5068568;28;20454;-63
2022/09/01 04:10:49;;;;;;;7.33;4.20;;;;;;;23.58;58.07;100394.72;5064862;28;20450;-63
2022/09/01 04:13:34;;;;;;;5.70;4.10;;;;;;;23.57;58.15;100393.06;5035811;28;20949;-62
2022/09/01 04:15:59;;;;;;;7.37;4.07;;;;;;;23.57;58.78;100400.88;5058756;28;20426;-62
2022/09/01 04:18:25;;;;;;;8.10;4.53;;;;;;;23.55;58.38;100392.69;5053629;28;20515;-63
2022/09/01 04:20:55;;;;;;;9.03;4.93;;;;;;;23.55;58.16;100397.59;5053808;28;20593;-63
2022/09/01 04:23:29;;;;;;;5.70;4.17;;;;;;;23.52;57.85;100393.50;5052428;28;20257;-63
2022/09/01 04:25:55;;;;;;;5.47;4.23;;;;;;;23.53;58.25;100405.84;5053793;28;20877;-63
2022/09/01 04:28:23;;;;;;;7.10;4.47;;;;;;;23.49;57.92;100400.06;5053587;28;20552;-63
2022/09/01 04:30:54;;;;;;;10.70;5.27;;;;;;;23.51;58.04;100394.72;5071314;28;20844;-63
2022/09/01 04:33:21;;;;;;;7.97;4.33;;;;;;;23.53;58.23;100395.13;5072093;28;20440;-62
2022/09/01 04:35:48;;;;;;;6.50;4.50;;;;;;;23.55;57.86;100398.44;5073825;28;20760;-63
2022/09/01 04:38:14;;;;;;;8.47;4.33;;;;;;;23.55;57.70;100398.44;5071400;28;20464;-62
2022/09/01 04:40:40;;;;;;;12.23;4.80;;;;;;;23.54;58.18;100399.66;5072133;28;20850;-63
2022/09/01 04:43:06;;;;;;;7.77;4.43;;;;;;;23.57;58.26;100400.88;5071070;28;20508;-63
2022/09/01 04:45:35;;;;;;;7.77;4.53;;;;;;;23.56;58.16;100400.09;5072214;28;20178;-63
2022/09/01 04:48:01;;;;;;;8.77;4.17;;;;;;;23.56;58.15;100399.25;5071042;28;20174;-63
2022/09/01 04:50:29;;;;;;;7.40;4.60;;;;;;;23.55;58.12;100400.50;5072130;28;20776;-62
2022/09/01 04:52:59;;;;;;;5.73;4.33;;;;;;;23.56;58.17;100399.25;5072231;28;20500;-62
2022/09/01 04:55:28;;;;;;;7.03;4.60;;;;;;;23.57;58.48;100401.72;5072606;28;20463;-63
2022/09/01 04:57:56;;;;;;;6.80;4.70;;;;;;;23.58;57.95;100403.38;5072373;28;20421;-63
2022/09/01 05:00:22;;;;;;;6.23;4.23;;;;;;;23.57;58.01;100395.13;5070906;28;20449;-62
2022/09/01 05:02:52;;;;;;;5.73;4.37;;;;;;;23.57;58.41;100403.78;5060569;28;20955;-63
2022/09/01 05:05:21;;;;;;;6.30;4.10;;;;;;;23.55;58.08;100398.44;5050900;28;20187;-63
2022/09/01 05:07:50;;;;;;;5.67;4.57;;;;;;;23.56;58.20;100396.38;5051012;28;20964;-63
2022/09/01 05:10:17;;;;;;;6.73;4.13;;;;;;;23.56;58.13;100402.13;5055507;28;20567;-63
2022/09/01 05:12:44;;;;;;;7.87;4.43;;;;;;;23.55;57.66;100395.56;5072749;28;20469;-63
2022/09/01 05:15:11;;;;;;;11.90;4.77;;;;;;;23.52;57.76;100404.19;5072601;28;20417;-63
2022/09/01 05:17:37;;;;;;;6.80;3.97;;;;;;;23.49;57.59;100402.94;5072886;28;20429;-62
2022/09/01 05:20:03;;;;;;;5.30;4.13;;;;;;;23.48;57.87;100403.38;5071279;28;20522;-62
2022/09/01 05:22:30;;;;;;;10.27;5.10;;;;;;;23.50;58.43;100395.16;5072690;28;20186;-63
2022/09/01 05:25:10;;;;;;;6.27;4.50;;;;;;;23.50;57.83;100395.97;5072575;28;20417;-63
2022/09/01 05:27:38;;;;;;;11.17;4.60;;;;;;;23.49;57.87;100394.31;5072769;28;20904;-63
2022/09/01 05:30:07;;;;;;;8.60;4.53;;;;;;;23.48;57.95;100398.44;5072276;28;20489;-63
2022/09/01 05:32:35;;;;;;;6.23;5.00;;;;;;;23.48;57.76;100397.63;5060970;28;20540;-62
2022/09/01 05:35:02;;;;;;;11.53;3.93;;;;;;;23.43;57.66;100401.72;5071851;28;20929;-63
2022/09/01 05:37:29;;;;;;;6.87;4.90;;;;;;;23.42;57.84;100405.00;5071864;28;20417;-63
2022/09/01 05:39:55;;;;;;;6.60;4.87;;;;;;;23.41;58.18;100404.22;5071317;28;20883;-62
2022/09/01 05:42:20;;;;;;;5.77;4.60;;;;;;;23.42;58.16;100402.97;5070263;28;20421;-63
2022/09/01 05:44:46;;;;;;;9.20;4.30;;;;;;;23.41;58.08;100404.22;5070746;28;20179;-63
2022/09/01 05:47:12;;;;;;;7.33;4.97;;;;;;;23.43;58.02;100400.91;5072241;28;20646;-62
2022/09/01 05:49:38;;;;;;;12.40;4.37;;;;;;;23.42;58.41;100402.97;5070718;28;20429;-62
2022/09/01 05:52:04;;;;;;;7.67;4.63;;;;;;;23.45;58.31;100404.19;5071957;28;20202;-63
2022/09/01 05:54:31;;;;;;;6.30;4.37;;;;;;;23.46;58.29;100408.72;5070545;28;21052;-63
2022/09/01 05:56:57;;;;;;;5.43;4.47;;;;;;;23.46;58.03;100412.44;5072131;28;20183;-63
2022/09/01 05:59:23;;;;;;;8.53;4.50;;;;;;;23.47;58.23;100401.72;5071700;28;20982;-63
2022/09/01 06:01:49;;;;;;;10.40;5.20;;;;;;;23.47;58.17;100408.31;5050585;28;20788;-62
2022/09/01 06:04:14;;;;;;;9.47;5.20;;;;;;;23.11;60.14;100397.97;5072545;28;20449;-62
2022/09/01 06:06:45;;;;;;;8.37;6.33;;;;;;;23.31;61.56;100396.38;5079070;28;20251;-63
2022/09/01 06:09:12;;;;;;;9.30;6.23;;;;;;;23.63;62.50;100402.94;5070892;28;20198;-62
2022/09/01 06:11:37;;;;;;;14.03;7.80;;;;;;;23.59;62.54;100407.88;5053874;28;20490;-63
2022/09/01 06:14:04;;;;;;;12.40;8.40;;;;;;;23.41;62.34;100412.84;5066814;28;20826;-63
2022/09/01 06:16:30;;;;;;;12.70;7.80;;;;;;;23.45;62.73;100404.19;5086699;28;20179;-63
2022/09/01 06:18:56;;;;;;;17.63;7.00;;;;;;;23.25;62.49;100406.69;5068091;28;20487;-62
2022/09/01 06:21:23;;;;;;;9.63;7.00;;;;;;;23.38;61.94;100421.50;5069623;28;20207;-62
2022/09/01 06:23:50;;;;;;;16.73;7.17;;;;;;;23.46;61.42;100423.97;5069459;28;20420;-62
2022/09/01 06:26:19;;;;;;;10.80;8.07;;;;;;;22.93;62.19;100422.22;5070140;28;20179;-63
2022/09/01 06:28:45;;;;;;;12.83;7.17;;;;;;;23.13;61.04;100424.31;5068384;28;20453;-63
2022/09/01 06:31:11;;;;;;;12.00;7.40;;;;;;;23.02;61.76;100429.22;5069469;28;20792;-63
2022/09/01 06:33:37;;;;;;;11.33;7.50;;;;;;;22.75;61.67;100432.88;5069440;28;20195;-62
2022/09/01 06:36:03;;;;;;;9.30;7.27;;;;;;;22.98;61.63;100434.16;5070242;28;20433;-62
2022/09/01 06:38:29;;;;;;;11.03;8.30;;;;;;;23.08;61.24;100429.66;5075795;28;20817;-64
2022/09/01 06:41:11;;;;;;;10.80;8.50;;;;;;;22.98;60.83;100431.28;5061898;28;20187;-63
2022/09/01 06:43:39;;;;;;;16.20;8.10;;;;;;;22.87;61.78;100430.44;5047925;28;20188;-63
2022/09/01 06:46:05;;;;;;;10.20;7.87;;;;;;;23.18;60.49;100435.47;5049459;28;20433;-65
2022/09/01 06:48:30;;;;;;;11.83;7.40;;;;;;;23.23;61.00;100431.38;5067770;28;20425;-65
2022/09/01 06:51:01;;;;;;;12.43;8.10;;;;;;;23.13;61.08;100426.38;5065990;28;20847;-64
2022/09/01 06:53:30;;;;;;;12.30;8.20;;;;;;;23.27;60.53;100437.94;5066994;28;20202;-63
2022/09/01 06:55:56;;;;;;;13.67;7.80;;;;;;;23.34;60.86;100427.25;5087803;28;20854;-64
2022/09/01 06:58:21;;;;;;;14.00;8.80;;;;;;;23.27;60.59;100441.66;5068518;28;20464;-64
2022/09/01 07:00:48;;;;;;;8.30;7.23;;;;;;;23.24;60.73;100441.66;5053343;28;20190;-63
2022/09/01 07:03:14;;;;;;;11.40;7.53;;;;;;;23.20;60.52;100432.19;5069743;28;20178;-64
2022/09/01 07:05:40;;;;;;;9.50;7.13;;;;;;;22.75;61.68;100445.22;5085910;28;20773;-63
2022/09/01 07:08:09;;;;;;;10.00;8.10;;;;;;;22.78;61.56;100450.13;5068390;28;20175;-63
2022/09/01 07:10:39;;;;;;;12.63;7.87;;;;;;;22.83;62.06;100448.94;5057403;28;20445;-64
2022/09/01 07:13:06;;;;;;;13.63;7.33;;;;;;;23.00;62.00;100451.88;5069942;28;20485;-64
2022/09/01 07:15:34;;;;;;;11.30;7.30;;;;;;;23.12;61.62;100448.59;5084687;28;20444;-63
2022/09/01 07:17:59;;;;;;;12.70;7.07;;;;;;;22.91;62.63;100459.22;5087451;28;21058;-63
2022/09/01 07:20:26;;;;;;;11.03;6.40;;;;;;;23.16;62.11;100460.13;5068859;28;20465;-63
2022/09/01 07:22:52;;;;;;;11.70;7.27;;;;;;;23.31;61.84;100456.88;5078098;28;20189;-62
2022/09/01 07:25:19;;;;;;;11.13;7.03;;;;;;;23.42;61.45;100463.47;5067238;28;20421;-61
2022/09/01 07:27:49;;;;;;;14.40;7.97;;;;;;;23.51;60.68;100469.66;5066935;28;20417;-62
2022/09/01 07:30:19;;;;;;;9.97;7.30;;;;;;;23.22;61.79;100472.91;5050406;28;21002;-63
2022/09/01 07:32:45;;;;;;;10.80;7.67;;;;;;;23.28;62.09;100471.31;5069024;28;20887;-63
2022/09/01 07:35:17;;;;;;;9.90;7.20;;;;;;;23.41;61.67;100467.59;5086844;28;21239;-63
2022/09/01 07:37:43;;;;;;;11.67;7.80;;;;;;;23.43;61.38;100473.78;5081056;28;20527;-63
2022/09/01 07:40:10;;;;;;;15.07;8.40;;;;;;;23.30;60.98;100472.53;5066474;28;20453;-63
2022/09/01 07:42:38;;;;;;;11.73;7.53;;;;;;;23.26;61.03;100476.63;5086738;28;20500;-63
2022/09/01 07:45:10;;;;;;;9.93;7.27;;;;;;;23.24;61.11;100473.34;5088671;28;20412;-63
2022/09/01 07:47:36;;;;;;;19.97;7.63;;;;;;;23.23;61.20;100483.22;5079061;28;20444;-63
2022/09/01 07:50:07;;;;;;;10.43;7.17;;;;;;;22.96;62.11;100473.22;5072471;28;20417;-63
2022/09/01 07:52:35;;;;;;;11.17;6.37;;;;;;;23.12;61.79;100471.63;5072778;28;20242;-63
2022/09/01 07:55:01;;;;;;;10.93;7.00;;;;;;;23.08;61.78;100470.78;5052857;28;20958;-63
2022/09/01 07:57:27;;;;;;;9.70;6.37;;;;;;;23.18;62.17;100470.03;5071829;28;20459;-62
2022/09/01 07:59:54;;;;;;;13.77;6.73;;;;;;;23.25;61.68;100470.06;5056267;28;20467;-63
2022/09/01 08:02:20;;;;;;;9.50;6.17;;;;;;;23.19;62.36;100465.91;5078784;28;20191;-64
2022/09/01 08:04:45;;;;;;;8.80;6.53;;;;;;;23.29;62.23;100470.06;5089816;28;20441;-62
2022/09/01 08:07:11;;;;;;;10.90;6.63;;;;;;;23.37;61.79;100474.56;5072562;28;20186;-62
2022/09/01 08:09:37;;;;;;;13.10;5.70;;;;;;;23.36;61.96;100465.13;5071377;28;20167;-62
2022/09/01 08:12:04;;;;;;;15.33;6.30;;;;;;;23.42;61.65;100474.16;5071363;28;20231;-62
2022/09/01 08:14:30;;;;;;;7.63;5.90;;;;;;;23.46;61.52;100469.25;5072782;28;20163;-62
2022/09/01 08:16:55;;;;;;;11.30;6.50;;;;;;;23.46;60.86;100477.88;5071340;28;20414;-62
2022/09/01 08:19:21;;;;;;;13.17;6.23;;;;;;;23.47;60.82;100480.38;5072132;28;20452;-62
2022/09/01 08:21:47;;;;;;;6.77;5.60;;;;;;;23.46;61.03;100472.13;5070185;28;20175;-62
2022/09/01 08:24:14;;;;;;;11.93;7.00;;;;;;;23.37;61.17;100478.28;5072182;28;20190;-62
2022/09/01 08:26:40;;;;;;;9.93;6.50;;;;;;;23.42;61.07;100472.13;5072680;28;20159;-63
2022/09/01 08:29:05;;;;;;;9.90;6.53;;;;;;;23.45;61.10;100479.97;5070408;28;20463;-63
2022/09/01 08:31:31;;;;;;;9.83;6.00;;;;;;;23.48;61.00;100484.88;5071493;28;20661;-63
2022/09/01 08:33:57;;;;;;;7.33;5.70;;;;;;;23.42;61.10;100480.78;5071954;28;20185;-62
2022/09/01 08:36:23;;;;;;;9.30;6.03;;;;;;;23.44;61.59;100477.50;5071353;28;20175;-62
2022/09/01 08:38:48;;;;;;;8.00;5.50;;;;;;;23.49;60.94;100475.00;5072736;28;20549;-60
2022/09/01 08:41:22;;;;;;;7.70;5.80;;;;;;;23.49;60.72;100477.09;5073394;28;20193;-61
2022/09/01 08:44:06;;;;;;;10.90;5.63;;;;;;;23.47;60.80;100482.41;5073176;28;20248;-61
2022/09/01 08:46:34;;;;;;;9.60;6.33;;;;;;;23.40;61.21;100480.38;5073374;28;20845;-61
2022/09/01 08:49:03;;;;;;;8.83;5.97;;;;;;;23.43;60.65;100475.84;5055077;28;20413;-61
2022/09/01 08:51:36;;;;;;;9.60;5.93;;;;;;;23.35;60.50;100477.91;5054765;28;21050;-61
2022/09/01 08:54:23;;;;;;;9.17;5.40;;;;;;;23.36;60.17;100485.31;5053602;28;20445;-62
2022/09/01 08:57:44;;;;;;;10.20;6.57;;;;;;;23.45;60.45;100477.09;5071849;28;20513;-61
2022/09/01 09:00:12;;;;;;;7.47;5.50;;;;;;;23.43;60.42;100478.72;5042660;28;20977;-61
2022/09/01 09:02:40;;;;;;;6.97;5.50;;;;;;;23.49;60.06;100480.78;5051097;28;20484;-61
2022/09/01 09:05:25;;;;;;;10.80;5.47;;;;;;;23.46;60.40;100477.88;5052631;28;20434;-62
2022/09/01 09:08:32;;;;;;;6.13;4.80;;;;;;;23.36;60.53;100473.78;5051640;28;20410;-62
2022/09/01 09:11:16;;;;;;;10.60;6.30;;;;;;;23.18;60.46;100470.03;5028889;28;20425;-62
2022/09/01 09:14:09;;;;;;;10.43;5.67;;;;;;;23.37;60.57;100478.28;5071463;28;20956;-62
2022/09/01 09:16:41;;;;;;;7.97;5.10;;;;;;;23.38;60.04;100479.94;5072916;28;20477;-62
2022/09/01 09:19:15;;;;;;;11.03;6.07;;;;;;;23.45;60.18;100477.09;5070823;28;20553;-62
2022/09/01 09:21:42;;;;;;;8.30;6.10;;;;;;;23.47;59.91;100465.13;5071812;28;20517;-62
2022/09/01 09:24:14;;;;;;;7.33;6.03;;;;;;;23.38;60.19;100464.72;5070146;28;20500;-63
2022/09/01 09:26:39;;;;;;;7.97;5.30;;;;;;;23.45;59.93;100462.69;5071853;28;20413;-62
2022/09/01 09:29:05;;;;;;;8.70;6.10;;;;;;;23.49;59.72;100469.25;5071814;28;20420;-62
2022/09/01 09:31:33;;;;;;;9.03;6.73;;;;;;;23.42;59.75;100460.59;5070555;28;20537;-62
2022/09/01 09:33:58;;;;;;;6.33;5.27;;;;;;;23.49;59.51;100460.59;5070914;28;20204;-62
2022/09/01 09:36:34;;;;;;;16.30;5.97;;;;;;;23.53;59.39;100463.50;5072401;28;20421;-62
2022/09/01 09:39:07;;;;;;;10.73;5.30;;;;;;;23.42;59.27;100451.97;5072194;28;20544;-62
2022/09/01 09:41:32;;;;;;;9.33;6.07;;;;;;;23.41;59.61;100447.44;5070303;28;20420;-62
2022/09/01 09:44:00;;;;;;;7.63;5.70;;;;;;;23.45;59.67;100442.50;5071830;28;20426;-62
2022/09/01 09:46:30;;;;;;;6.10;5.00;;;;;;;23.39;59.76;100447.00;5053807;28;20179;-63
2022/09/01 09:49:09;;;;;;;6.27;5.10;;;;;;;23.31;59.79;100442.47;5070188;28;20416;-63
2022/09/01 09:51:35;;;;;;;7.20;5.23;;;;;;;23.25;60.00;100441.25;5070246;28;20776;-63
2022/09/01 09:54:18;;;;;;;8.93;5.63;;;;;;;23.32;60.40;100441.25;5070336;28;20448;-62
2022/09/01 09:56:44;;;;;;;8.63;5.43;;;;;;;23.29;59.70;100438.38;5070968;28;20405;-62
2022/09/01 09:59:26;;;;;;;7.30;5.20;;;;;;;23.46;59.37;100431.78;5069382;28;20461;-62
2022/09/01 10:01:54;;;;;;;6.20;4.97;;;;;;;23.35;59.82;100428.91;5053526;28;20178;-63
2022/09/01 10:04:40;;;;;;;7.00;5.23;;;;;;;23.42;59.93;100428.06;5053377;28;21034;-61
2022/09/01 10:07:22;;;;;;;7.80;4.93;;;;;;;23.41;59.92;100427.25;5069471;28;20996;-61
2022/09/01 10:09:48;;;;;;;5.90;4.70;;;;;;;23.44;59.69;100431.38;5071348;28;20420;-61
2022/09/01 10:12:13;;;;;;;6.77;5.07;;;;;;;23.37;60.30;100431.34;5071491;28;20457;-62
2022/09/01 10:15:01;;;;;;;7.03;4.90;;;;;;;23.32;60.06;100435.47;5070467;28;20773;-62
2022/09/01 10:17:33;;;;;;;6.17;5.17;;;;;;;23.39;60.09;100429.72;5070372;28;20228;-62
2022/09/01 10:20:05;;;;;;;5.60;4.63;;;;;;;23.41;59.29;100427.25;5053832;28;20453;-62
2022/09/01 10:22:32;;;;;;;5.50;4.63;;;;;;;23.49;59.25;100426.00;5070249;28;20399;-62
2022/09/01 10:24:59;;;;;;;5.47;4.33;;;;;;;23.40;59.88;100419.84;5050019;28;20445;-62
2022/09/01 10:27:26;;;;;;;6.63;4.40;;;;;;;23.50;59.72;100419.03;5051473;28;20414;-62
2022/09/01 10:29:59;;;;;;;7.03;4.77;;;;;;;23.50;58.67;100413.28;5050244;28;20445;-62
2022/09/01 10:32:36;;;;;;;7.07;5.10;;;;;;;23.54;58.45;100410.38;5047081;28;20432;-62
2022/09/01 10:35:02;;;;;;;8.23;5.53;;;;;;;23.50;58.53;100413.28;5053992;28;20423;-62
2022/09/01 10:37:27;;;;;;;7.47;5.30;;;;;;;23.56;57.42;100410.78;5069334;28;20417;-62
2022/09/01 10:40:10;;;;;;;17.30;11.03;;;;;;;23.60;58.46;100400.91;5070046;28;20190;-62
2022/09/01 10:42:35;;;;;;;7.17;5.27;;;;;;;23.56;57.30;100396.38;5070706;28;20258;-61
2022/09/01 10:45:01;;;;;;;8.30;5.73;;;;;;;23.63;58.23;100405.84;5070617;28;20467;-61
2022/09/01 10:47:28;;;;;;;7.17;5.30;;;;;;;23.58;58.42;100402.56;5070925;28;20538;-62
2022/09/01 10:49:54;;;;;;;7.63;6.10;;;;;;;23.58;58.52;100400.47;5070852;28;20525;-61
2022/09/01 10:52:41;;;;;;;15.47;9.77;;;;;;;23.56;58.24;100405.84;5070995;28;20408;-62
2022/09/01 10:55:58;;;;;;;12.20;8.93;;;;;;;23.58;58.35;100403.38;5061445;28;20662;-61
2022/09/01 10:58:34;;;;;;;16.30;10.80;;;;;;;23.61;58.70;100405.44;5026298;28;20426;-62
2022/09/01 11:01:00;;;;;;;12.03;8.77;;;;;;;23.63;57.99;100400.06;5071068;28;20432;-62
2022/09/01 11:03:25;;;;;;;12.43;8.80;;;;;;;23.62;58.60;100398.44;5070954;28;20472;-62
2022/09/01 11:05:56;;;;;;;8.73;7.00;;;;;;;23.62;58.37;100397.59;5070889;28;20442;-62
2022/09/01 11:08:38;;;;;;;9.73;7.10;;;;;;;23.58;58.15;100402.56;5070848;28;20261;-62
2022/09/01 11:11:22;;;;;;;9.90;7.53;;;;;;;23.60;58.08;100406.69;5066297;28;20414;-62
2022/09/01 11:13:48;;;;;;;7.07;5.40;;;;;;;23.63;57.56;100397.19;5049479;28;20458;-62
2022/09/01 11:16:34;;;;;;;9.07;6.20;;;;;;;23.56;57.33;100394.31;5050706;28;20411;-62
2022/09/01 11:19:26;;;;;;;8.03;6.80;;;;;;;23.57;58.08;100393.06;5051042;28;20534;-63
2022/09/01 11:22:15;;;;;;;8.33;5.43;;;;;;;23.50;57.08;100390.22;5064965;28;20407;-63
2022/09/01 11:24:51;;;;;;;7.90;5.00;;;;;;;23.54;57.10;100391.00;5077223;28;20413;-62
2022/09/01 11:27:48;;;;;;;7.20;5.23;;;;;;;23.54;57.51;100391.00;5076043;28;20429;-63
2022/09/01 11:30:20;;;;;;;6.60;4.87;;;;;;;23.56;57.56;100400.09;5077140;28;20409;-62
2022/09/01 11:32:49;;;;;;;6.70;5.20;;;;;;;23.54;55.94;100396.78;5075379;28;20436;-63
2022/09/01 11:35:20;;;;;;;6.23;4.80;;;;;;;23.55;56.16;100384.03;5075575;28;20478;-62